createdAt,value
2019-05-26T00:00:09.623Z,14.90
2019-05-26T03:02:25.155Z,12.30
2019-05-26T03:04:54.430Z,12.30
2019-05-26T03:07:25.748Z,12.30
2019-05-26T03:09:56.624Z,12.30
2019-05-26T03:12:28.703Z,12.30
2019-05-26T03:15:00.583Z,12.30
2019-05-26T03:17:33.628Z,12.20
2019-05-26T03:20:04.407Z,12.30
2019-05-26T03:22:36.134Z,12.20
2019-05-26T03:25:05.936Z,12.20
2019-05-26T03:27:35.204Z,12.10
2019-05-26T03:30:07.273Z,12.10
2019-05-26T03:32:36.683Z,12.10
2019-05-26T03:35:09.911Z,12.10
2019-05-26T03:37:39.290Z,12.10
2019-05-26T03:40:10.423Z,12.20
2019-05-26T03:42:39.701Z,12.20
2019-05-26T03:45:09.830Z,12.30
2019-05-26T03:47:39.151Z,12.20
2019-05-26T03:50:08.865Z,12.20
2019-05-26T03:52:38.549Z,12.20
2019-05-26T03:55:07.875Z,12.20
2019-05-26T03:57:37.668Z,12.20
2019-05-26T04:00:10.087Z,12.30
2019-05-26T04:02:39.648Z,12.20
2019-05-26T04:05:09.086Z,12.10
2019-05-26T04:07:38.467Z,12.10
2019-05-26T04:10:08.369Z,12.10
2019-05-26T04:12:37.651Z,12.10
2019-05-26T04:15:08.376Z,12.20
2019-05-26T04:17:37.671Z,12.10
2019-05-26T04:20:09.100Z,12.00
2019-05-26T04:22:38.362Z,11.90
2019-05-26T04:25:08.079Z,11.90
2019-05-26T04:27:37.348Z,12.00
2019-05-26T04:30:07.903Z,12.10
2019-05-26T04:32:37.173Z,12.20
2019-05-26T04:35:07.115Z,12.40
2019-05-26T04:37:36.384Z,12.60
2019-05-26T04:40:25.984Z,12.70
2019-05-26T04:42:39.774Z,12.80
2019-05-26T04:45:09.397Z,12.90
2019-05-26T04:47:38.666Z,12.90
2019-05-26T04:50:08.576Z,13.00
2019-05-26T04:52:37.857Z,13.10
2019-05-26T04:55:10.715Z,13.20
2019-05-26T04:57:39.995Z,13.30
2019-05-26T05:00:10.796Z,13.30
2019-05-26T05:02:40.089Z,13.50
2019-05-26T05:05:09.796Z,13.60
2019-05-26T05:07:39.083Z,13.70
2019-05-26T05:10:08.490Z,13.70
2019-05-26T05:12:37.771Z,13.70
2019-05-26T05:15:07.892Z,13.80
2019-05-26T05:17:37.439Z,13.90
2019-05-26T05:20:08.416Z,14.00
2019-05-26T05:22:37.698Z,14.10
2019-05-26T05:25:14.669Z,14.20
2019-05-26T05:27:41.964Z,14.20
2019-05-26T05:30:12.730Z,14.30
2019-05-26T05:32:41.999Z,14.30
2019-05-26T05:35:12.170Z,14.30
2019-05-26T05:37:41.438Z,14.40
2019-05-26T05:40:13.248Z,14.20
2019-05-26T05:42:42.843Z,14.10
2019-05-26T05:45:12.858Z,14.10
2019-05-26T05:47:42.130Z,14.20
2019-05-26T05:50:11.648Z,14.30
2019-05-26T05:52:40.914Z,14.30
2019-05-26T05:55:10.614Z,14.30
2019-05-26T05:57:40.188Z,14.20
2019-05-26T06:00:10.639Z,14.10
2019-05-26T06:02:40.227Z,14.20
2019-05-26T06:05:10.162Z,14.40
2019-05-26T06:07:39.756Z,14.60
2019-05-26T06:10:09.667Z,14.70
2019-05-26T06:12:39.110Z,14.90
2019-05-26T06:15:12.965Z,14.90
2019-05-26T06:17:42.952Z,15.00
2019-05-26T06:20:13.938Z,15.00
2019-05-26T06:22:43.202Z,15.20
2019-05-26T06:25:13.071Z,15.40
2019-05-26T06:27:42.335Z,15.60
2019-05-26T06:30:12.772Z,15.80
2019-05-26T06:32:42.042Z,16.00
2019-05-26T06:35:11.378Z,16.10
2019-05-26T06:37:40.651Z,16.30
2019-05-26T06:40:11.254Z,16.30
2019-05-26T06:42:40.521Z,16.30
2019-05-26T06:45:12.675Z,16.30
2019-05-26T06:47:41.932Z,16.50
2019-05-26T06:50:11.807Z,16.80
2019-05-26T06:52:41.110Z,16.90
2019-05-26T06:55:12.292Z,16.90
2019-05-26T06:57:41.938Z,17.10
2019-05-26T07:00:11.489Z,17.10
2019-05-26T07:02:40.777Z,17.10
2019-05-26T07:05:10.502Z,17.10
2019-05-26T07:07:39.831Z,17.10
2019-05-26T07:10:09.665Z,17.10
2019-05-26T07:12:38.946Z,17.20
2019-05-26T07:15:10.263Z,17.30
2019-05-26T07:17:39.563Z,17.50
2019-05-26T07:20:09.529Z,17.60
2019-05-26T07:22:38.854Z,17.70
2019-05-26T07:25:09.462Z,17.90
2019-05-26T07:27:38.750Z,18.00
2019-05-26T07:30:09.758Z,18.00
2019-05-26T07:32:39.207Z,18.10
2019-05-26T07:35:08.946Z,18.30
2019-05-26T07:37:38.400Z,18.40
2019-05-26T07:40:07.759Z,18.50
2019-05-26T07:42:37.031Z,18.60
2019-05-26T07:45:07.677Z,18.70
2019-05-26T07:47:36.943Z,18.70
2019-05-26T07:50:07.183Z,18.50
2019-05-26T07:52:36.483Z,18.60
2019-05-26T07:55:06.634Z,18.50
2019-05-26T07:57:36.165Z,18.60
2019-05-26T08:00:07.395Z,18.70
2019-05-26T08:02:36.684Z,19.00
2019-05-26T08:05:07.334Z,19.10
2019-05-26T08:07:36.961Z,19.00
2019-05-26T08:10:07.170Z,19.10
2019-05-26T08:12:36.466Z,19.20
2019-05-26T08:15:07.480Z,19.20
2019-05-26T08:17:36.830Z,19.10
2019-05-26T08:20:08.116Z,19.30
2019-05-26T08:22:37.499Z,19.60
2019-05-26T08:25:08.110Z,19.70
2019-05-26T08:27:37.405Z,19.90
2019-05-26T08:30:10.246Z,19.80
2019-05-26T08:32:39.530Z,19.70
2019-05-26T08:35:10.098Z,19.80
2019-05-26T08:37:39.370Z,19.90
2019-05-26T08:40:17.991Z,20.00
2019-05-26T08:42:49.948Z,20.20
2019-05-26T08:45:22.003Z,20.40
2019-05-26T08:47:52.256Z,20.30
2019-05-26T08:50:22.554Z,20.10
2019-05-26T08:52:51.839Z,20.20
2019-05-26T08:55:21.786Z,20.40
2019-05-26T08:57:51.349Z,20.30
2019-05-26T09:00:22.746Z,20.30
2019-05-26T09:02:52.053Z,20.40
2019-05-26T09:05:22.365Z,20.70
2019-05-26T09:07:51.629Z,20.80
2019-05-26T09:10:21.079Z,21.00
2019-05-26T09:13:00.709Z,21.10
2019-05-26T09:15:22.440Z,21.00
2019-05-26T09:17:51.700Z,20.60
2019-05-26T09:20:23.007Z,20.60
2019-05-26T09:22:52.345Z,20.70
2019-05-26T09:25:21.865Z,20.80
2019-05-26T09:27:51.128Z,20.70
2019-05-26T09:30:21.244Z,20.60
2019-05-26T09:32:50.513Z,20.40
2019-05-26T09:35:19.785Z,20.30
2019-05-26T09:37:49.058Z,20.50
2019-05-26T09:40:18.543Z,20.50
2019-05-26T09:42:47.812Z,20.50
2019-05-26T09:45:17.606Z,20.50
2019-05-26T09:47:46.879Z,20.60
2019-05-26T09:50:16.314Z,20.80
2019-05-26T09:52:45.579Z,21.00
2019-05-26T09:55:15.326Z,21.20
2019-05-26T09:57:44.682Z,21.20
2019-05-26T10:00:16.288Z,21.20
2019-05-26T10:02:45.902Z,21.30
2019-05-26T10:05:15.810Z,21.30
2019-05-26T10:07:45.218Z,21.50
2019-05-26T10:10:15.238Z,21.80
2019-05-26T10:12:44.505Z,22.10
2019-05-26T10:15:14.681Z,22.40
2019-05-26T10:17:43.960Z,22.30
2019-05-26T10:20:13.755Z,22.00
2019-05-26T10:22:43.026Z,21.80
2019-05-26T10:25:12.530Z,21.50
2019-05-26T10:27:41.801Z,21.60
2019-05-26T10:30:15.399Z,21.80
2019-05-26T10:32:44.666Z,21.90
2019-05-26T10:35:14.405Z,22.10
2019-05-26T10:37:43.671Z,21.90
2019-05-26T10:40:13.570Z,21.90
2019-05-26T10:42:42.842Z,22.10
2019-05-26T10:45:13.447Z,22.40
2019-05-26T10:47:42.710Z,22.40
2019-05-26T10:50:12.107Z,22.40
2019-05-26T10:52:41.371Z,22.50
2019-05-26T10:55:10.967Z,22.60
2019-05-26T10:57:40.247Z,22.50
2019-05-26T11:00:10.142Z,22.70
2019-05-26T11:02:39.470Z,22.70
2019-05-26T11:05:09.074Z,22.90
2019-05-26T11:07:38.343Z,23.00
2019-05-26T11:10:07.938Z,23.00
2019-05-26T11:12:37.415Z,23.20
2019-05-26T11:15:11.846Z,23.50
2019-05-26T11:17:41.431Z,23.50
2019-05-26T11:20:12.374Z,23.60
2019-05-26T11:22:41.654Z,23.70
2019-05-26T11:25:12.053Z,23.80
2019-05-26T11:27:41.319Z,24.00
2019-05-26T11:30:12.219Z,24.30
2019-05-26T11:32:41.555Z,24.30
2019-05-26T11:35:11.172Z,23.80
2019-05-26T11:37:40.434Z,23.70
2019-05-26T11:40:10.346Z,23.90
2019-05-26T11:42:39.611Z,24.30
2019-05-26T11:45:09.745Z,24.50
2019-05-26T11:47:39.304Z,24.60
2019-05-26T11:50:09.015Z,24.80
2019-05-26T11:52:38.351Z,24.80
2019-05-26T11:55:08.275Z,24.80
2019-05-26T11:57:37.866Z,25.00
2019-05-26T12:00:08.731Z,24.90
2019-05-26T12:02:38.971Z,25.10
2019-05-26T12:05:09.786Z,25.20
2019-05-26T12:07:39.050Z,24.60
2019-05-26T12:10:13.650Z,24.10
2019-05-26T12:12:40.928Z,23.90
2019-05-26T12:15:11.137Z,23.30
2019-05-26T12:17:40.411Z,23.30
2019-05-26T12:20:09.926Z,23.50
2019-05-26T12:22:39.187Z,23.60
2019-05-26T12:25:09.191Z,23.80
2019-05-26T12:27:38.465Z,24.60
2019-05-26T12:30:10.069Z,25.00
2019-05-26T12:32:39.339Z,25.40
2019-05-26T12:35:09.441Z,25.50
2019-05-26T12:37:38.738Z,25.70
2019-05-26T12:40:10.499Z,25.80
2019-05-26T12:42:40.430Z,26.10
2019-05-26T12:45:10.545Z,26.50
2019-05-26T12:47:39.811Z,27.00
2019-05-26T12:50:19.943Z,26.80
2019-05-26T12:53:32.526Z,25.90
2019-05-26T12:56:43.109Z,24.90
2019-05-26T13:02:17.128Z,25.80
2019-05-26T13:04:46.395Z,25.80
2019-05-26T13:07:15.717Z,25.40
2019-05-26T13:09:45.343Z,25.30
2019-05-26T13:12:14.873Z,25.30
2019-05-26T13:14:44.111Z,25.90
2019-05-26T13:17:13.960Z,26.40
2019-05-26T13:19:43.291Z,26.50
2019-05-26T13:22:12.558Z,26.30
2019-05-26T13:24:42.902Z,26.60
2019-05-26T13:27:12.322Z,26.60
2019-05-26T13:29:41.590Z,26.80
2019-05-26T13:32:10.857Z,26.50
2019-05-26T13:34:40.125Z,25.70
2019-05-26T13:37:09.412Z,24.90
2019-05-26T13:39:38.679Z,24.70
2019-05-26T13:42:07.940Z,25.70
2019-05-26T13:44:38.179Z,26.40
2019-05-26T13:47:07.759Z,27.20
2019-05-26T13:49:37.075Z,27.60
2019-05-26T13:52:06.379Z,28.30
2019-05-26T13:54:35.647Z,28.30
2019-05-26T13:57:05.894Z,28.40
2019-05-26T13:59:35.467Z,28.60
2019-05-26T14:02:04.911Z,28.90
2019-05-26T14:04:34.176Z,28.90
2019-05-26T14:07:03.621Z,28.40
2019-05-26T14:09:32.946Z,28.50
2019-05-26T14:12:02.223Z,29.10
2019-05-26T14:14:31.489Z,29.80
2019-05-26T14:17:02.198Z,30.20
2019-05-26T14:19:33.297Z,30.10
2019-05-26T14:22:02.585Z,29.70
2019-05-26T14:24:31.842Z,29.20
2019-05-26T14:27:01.142Z,29.50
2019-05-26T14:29:30.451Z,29.60
2019-05-26T14:31:59.723Z,29.80
2019-05-26T14:34:28.983Z,28.10
2019-05-26T14:36:58.251Z,27.00
2019-05-26T14:39:27.535Z,26.70
2019-05-26T14:41:56.799Z,27.70
2019-05-26T14:44:26.063Z,29.40
2019-05-26T14:46:56.430Z,30.00
2019-05-26T14:49:26.144Z,29.00
2019-05-26T14:51:55.403Z,27.50
2019-05-26T14:54:24.668Z,27.50
2019-05-26T14:56:53.941Z,27.90
2019-05-26T14:59:23.200Z,29.20
2019-05-26T15:01:53.032Z,30.90
2019-05-26T15:04:22.535Z,31.70
2019-05-26T15:06:52.044Z,31.60
2019-05-26T15:09:25.218Z,30.60
2019-05-26T15:11:52.591Z,30.50
2019-05-26T15:14:21.850Z,31.30
2019-05-26T15:16:51.401Z,31.90
2019-05-26T15:19:20.663Z,31.90
2019-05-26T15:21:49.957Z,31.90
2019-05-26T15:24:19.191Z,31.50
2019-05-26T15:26:48.460Z,31.80
2019-05-26T15:29:17.735Z,31.70
2019-05-26T15:31:46.993Z,31.20
2019-05-26T15:34:16.276Z,30.10
2019-05-26T15:36:45.812Z,29.30
2019-05-26T15:39:15.084Z,28.40
2019-05-26T15:41:44.348Z,27.70
2019-05-26T15:44:13.620Z,28.00
2019-05-26T15:46:43.123Z,29.00
2019-05-26T15:49:12.406Z,29.90
2019-05-26T15:51:41.670Z,30.00
2019-05-26T15:54:10.946Z,29.20
2019-05-26T15:56:40.222Z,29.70
2019-05-26T15:59:09.487Z,29.70
2019-05-26T16:01:38.781Z,29.00
2019-05-26T16:04:08.040Z,28.70
2019-05-26T16:06:37.308Z,27.80
2019-05-26T16:09:08.174Z,27.30
2019-05-26T16:11:38.183Z,27.60
2019-05-26T16:14:07.505Z,28.20
2019-05-26T16:16:41.085Z,28.40
2019-05-26T16:19:08.069Z,28.00
2019-05-26T16:21:37.662Z,28.20
2019-05-26T16:24:07.086Z,28.20
2019-05-26T16:26:36.668Z,28.80
2019-05-26T16:29:06.115Z,28.50
2019-05-26T16:31:35.374Z,28.60
2019-05-26T16:34:04.632Z,28.30
2019-05-26T16:36:34.183Z,27.80
2019-05-26T16:39:04.995Z,27.20
2019-05-26T16:41:34.523Z,27.40
2019-05-26T16:44:04.068Z,27.30
2019-05-26T16:46:33.323Z,27.50
2019-05-26T16:49:02.658Z,27.40
2019-05-26T16:51:31.928Z,27.20
2019-05-26T16:54:01.447Z,27.10
2019-05-26T16:56:30.759Z,27.00
2019-05-26T16:59:00.032Z,26.90
2019-05-26T17:01:29.340Z,26.30
2019-05-26T17:03:58.607Z,26.10
2019-05-26T17:06:27.875Z,25.90
2019-05-26T17:08:57.143Z,25.30
2019-05-26T17:11:26.415Z,25.10
2019-05-26T17:13:55.690Z,25.20
2019-05-26T17:16:24.949Z,25.30
2019-05-26T17:21:23.172Z,24.80
2019-05-26T17:23:52.443Z,24.80
2019-05-26T17:26:21.713Z,24.80
2019-05-26T17:28:51.074Z,24.70
2019-05-26T17:31:20.339Z,24.60
2019-05-26T17:33:49.613Z,24.60
2019-05-26T17:36:18.880Z,24.50
2019-05-26T17:38:48.154Z,24.40
2019-05-26T17:41:17.406Z,24.20
2019-05-26T17:43:46.691Z,24.20
2019-05-26T17:46:15.961Z,24.10
2019-05-26T17:48:45.223Z,23.80
2019-05-26T17:51:14.487Z,23.70
2019-05-26T17:53:43.758Z,23.60
2019-05-26T17:56:13.086Z,23.50
2019-05-26T17:58:42.482Z,23.40
2019-05-26T18:01:11.858Z,23.30
2019-05-26T18:03:41.310Z,23.20
2019-05-26T18:06:10.572Z,23.10
2019-05-26T18:08:39.917Z,23.00
2019-05-26T18:11:09.213Z,23.00
2019-05-26T18:13:38.476Z,22.90
2019-05-26T18:16:07.809Z,22.80
2019-05-26T18:18:37.094Z,22.80
2019-05-26T18:21:06.442Z,22.70
2019-05-26T18:23:35.999Z,22.70
2019-05-26T18:26:05.436Z,22.70
2019-05-26T18:28:34.698Z,22.70
2019-05-26T18:31:04.317Z,22.60
2019-05-26T18:33:34.949Z,22.50
2019-05-26T18:36:04.313Z,22.40
2019-05-26T18:38:33.577Z,22.40
2019-05-26T18:41:02.864Z,22.40
2019-05-26T18:43:32.278Z,22.30
2019-05-26T18:46:01.535Z,22.20
2019-05-26T18:48:30.878Z,22.20
2019-05-26T18:51:00.158Z,22.10
2019-05-26T18:53:29.996Z,22.00
2019-05-26T18:55:59.422Z,22.00
2019-05-26T18:58:28.987Z,22.00
2019-05-26T19:00:58.272Z,22.00
2019-05-26T19:03:27.824Z,21.90
2019-05-26T19:05:57.404Z,21.90
2019-05-26T19:08:26.679Z,21.90
2019-05-26T19:10:55.943Z,21.80
2019-05-26T19:13:25.210Z,21.70
2019-05-26T19:15:54.822Z,21.70
2019-05-26T19:18:24.078Z,21.70
2019-05-26T19:20:53.515Z,21.70
2019-05-26T19:23:22.782Z,21.60
2019-05-26T19:25:52.055Z,21.60
2019-05-26T19:28:21.335Z,21.60
2019-05-26T19:30:50.948Z,21.50
2019-05-26T19:33:20.543Z,21.40
2019-05-26T19:35:50.083Z,21.40
2019-05-26T19:38:19.663Z,21.30
2019-05-26T19:40:48.960Z,21.40
2019-05-26T19:43:18.280Z,21.40
2019-05-26T19:45:47.895Z,21.40
2019-05-26T19:48:17.227Z,21.40
2019-05-26T19:50:46.487Z,21.40
2019-05-26T19:53:15.938Z,21.30
2019-05-26T19:55:45.487Z,21.30
2019-05-26T19:58:14.750Z,21.30
2019-05-26T20:00:44.019Z,21.20
2019-05-26T20:03:13.286Z,21.20
2019-05-26T20:05:42.550Z,21.20
2019-05-26T20:08:11.822Z,21.20
2019-05-26T20:10:41.088Z,21.20
2019-05-26T20:13:10.434Z,21.20
2019-05-26T20:15:39.759Z,21.20
2019-05-26T20:18:09.030Z,21.10
2019-05-26T20:20:38.299Z,21.10
2019-05-26T20:23:07.561Z,21.00
2019-05-26T20:25:36.829Z,21.00
2019-05-26T20:28:06.168Z,20.90
2019-05-26T20:30:35.438Z,20.90
2019-05-26T20:33:04.775Z,20.80
2019-05-26T20:35:34.047Z,20.70
2019-05-26T20:38:03.306Z,20.70
2019-05-26T20:40:32.587Z,20.60
2019-05-26T20:43:01.852Z,20.50
2019-05-26T20:45:31.123Z,20.40
2019-05-26T20:48:00.388Z,20.30
2019-05-26T20:50:30.186Z,20.20
2019-05-26T20:52:59.857Z,20.10
2019-05-26T20:55:29.111Z,20.10
2019-05-26T20:57:58.370Z,19.90
2019-05-26T21:00:27.716Z,19.90
2019-05-26T21:02:56.991Z,19.80
2019-05-26T21:05:26.261Z,19.70
2019-05-26T21:07:55.513Z,19.70
2019-05-26T21:10:24.784Z,19.60
2019-05-26T21:12:54.050Z,19.50
2019-05-26T21:15:23.317Z,19.40
2019-05-26T21:17:52.602Z,19.40
2019-05-26T21:20:23.583Z,19.40
2019-05-26T21:22:58.373Z,19.40
2019-05-26T21:25:27.639Z,19.30
2019-05-26T21:27:56.956Z,19.20
2019-05-26T21:30:26.228Z,19.20
2019-05-26T21:32:55.496Z,19.10
2019-05-26T21:35:24.777Z,19.00
2019-05-26T21:37:54.308Z,18.90
2019-05-26T21:40:23.754Z,18.90
2019-05-26T21:42:53.022Z,18.80
2019-05-26T21:45:22.352Z,18.70
2019-05-26T21:47:51.723Z,18.70
2019-05-26T21:50:21.063Z,18.60
2019-05-26T21:52:50.326Z,18.50
2019-05-26T21:55:19.599Z,18.40
2019-05-26T21:57:48.859Z,18.40
2019-05-26T22:00:23.642Z,18.30
2019-05-26T22:02:54.527Z,18.20
2019-05-26T22:05:23.793Z,18.20
2019-05-26T22:07:53.532Z,18.10
2019-05-26T22:10:22.798Z,18.00
2019-05-26T22:12:52.066Z,17.90
2019-05-26T22:15:21.331Z,17.80
2019-05-26T22:17:50.609Z,17.80
2019-05-26T22:20:19.863Z,17.80
2019-05-26T22:22:49.127Z,17.70
2019-05-26T22:25:18.400Z,17.60
2019-05-26T22:27:47.671Z,17.60
2019-05-26T22:30:17.570Z,17.50
2019-05-26T22:32:46.839Z,17.40
2019-05-26T22:35:16.097Z,17.40
2019-05-26T22:37:45.663Z,17.30
2019-05-26T22:40:16.199Z,17.30
2019-05-26T22:42:45.465Z,17.30
2019-05-26T22:45:15.371Z,17.30
2019-05-26T22:47:44.634Z,17.30
2019-05-26T22:50:14.352Z,17.20
2019-05-26T22:52:43.615Z,17.10
2019-05-26T22:55:13.063Z,17.10
2019-05-26T22:57:42.345Z,17.10
2019-05-26T23:00:12.273Z,17.10
2019-05-26T23:02:41.786Z,17.10
2019-05-26T23:05:11.289Z,17.10
2019-05-26T23:07:40.569Z,17.10
2019-05-26T23:10:11.279Z,17.10
2019-05-26T23:12:40.540Z,17.10
2019-05-26T23:15:10.450Z,17.10
2019-05-26T23:17:39.719Z,17.10
2019-05-26T23:20:09.523Z,17.10
2019-05-26T23:22:38.787Z,17.10
2019-05-26T23:25:08.491Z,17.10
2019-05-26T23:27:37.765Z,17.20
2019-05-26T23:30:07.963Z,17.20
2019-05-26T23:32:37.228Z,17.20
2019-05-26T23:35:07.027Z,17.20
2019-05-26T23:37:36.549Z,17.20
2019-05-26T23:40:09.019Z,17.30
2019-05-26T23:42:38.260Z,17.30
2019-05-26T23:45:08.055Z,17.30
2019-05-26T23:47:37.333Z,17.30
2019-05-26T23:50:07.603Z,17.30
2019-05-26T23:52:37.215Z,17.40
2019-05-26T23:55:07.265Z,17.40
2019-05-26T23:57:36.565Z,17.40
